Terminal Aerodrome Forecast
Issued by NWS

Home | Current Version | Previous Version | Graphics & Text | Print | Product List | Glossary On
Versions: 1 2 3 4 5 6 7 8 9 10 11 12 13 14 15 16 17 18 19
000
FTUS43 KABR 251958 AAA
TAFPIR
TAF AMD
KPIR 251958Z 2520/2618 05014G18KT P6SM SCT200
     FM252200 05010G21KT P6SM VCTS BKN200CB
     FM260000 05011KT P6SM -SHRA BKN090
      TEMPO 2600/2601 4SM TS OVC040CB
     FM260100 06008KT P6SM OVC090
     FM261700 05009KT P6SM SCT140=

USA.gov is the U.S. government's official web portal to all federal, state and local government web resources and services.